createdAt,value
2024-01-15T00:00:57.977Z,21.29
2024-01-15T00:01:57.756Z,21.29
2024-01-15T00:02:57.757Z,21.29
2024-01-15T00:03:57.866Z,21.24
2024-01-15T00:04:57.853Z,21.27
2024-01-15T00:05:57.959Z,21.29
2024-01-15T00:06:57.961Z,21.32
2024-01-15T00:07:57.901Z,21.29
2024-01-15T00:08:57.969Z,21.24
2024-01-15T00:09:58.064Z,21.27
2024-01-15T00:10:58.072Z,21.29
2024-01-15T00:11:58.138Z,21.24
2024-01-15T00:12:58.229Z,21.36
2024-01-15T00:13:58.302Z,21.29
2024-01-15T00:14:58.447Z,21.32
2024-01-15T00:15:58.487Z,21.23
2024-01-15T00:16:58.543Z,21.26
2024-01-15T00:17:58.611Z,21.32
2024-01-15T00:18:58.657Z,21.30
2024-01-15T00:19:58.759Z,21.29
2024-01-15T00:20:58.748Z,21.30
2024-01-15T00:21:58.820Z,21.29
2024-01-15T00:22:58.869Z,21.30
2024-01-15T00:23:58.928Z,21.32
2024-01-15T00:24:58.991Z,21.30
2024-01-15T00:25:59.097Z,21.32
2024-01-15T00:26:59.167Z,21.32
2024-01-15T00:27:59.270Z,21.30
2024-01-15T00:28:59.333Z,21.35
2024-01-15T00:29:59.330Z,21.29
2024-01-15T00:30:59.541Z,21.29
2024-01-15T00:31:59.495Z,21.26
2024-01-15T00:32:59.692Z,21.30
2024-01-15T00:33:59.971Z,21.33
2024-01-15T00:34:59.721Z,21.34
2024-01-15T00:35:59.797Z,21.32
2024-01-15T00:36:59.864Z,21.27
2024-01-15T00:37:59.902Z,21.30
2024-01-15T00:38:59.961Z,21.33
2024-01-15T00:40:00.039Z,21.36
2024-01-15T00:41:00.178Z,21.30
2024-01-15T00:42:00.243Z,21.36
2024-01-15T00:43:00.206Z,21.33
2024-01-15T00:44:00.250Z,21.31
2024-01-15T00:45:00.392Z,21.33
2024-01-15T00:46:00.419Z,21.37
2024-01-15T00:47:00.552Z,21.39
2024-01-15T00:48:00.707Z,21.32
2024-01-15T00:49:00.806Z,21.32
2024-01-15T00:50:00.708Z,21.39
2024-01-15T00:51:00.766Z,21.37
2024-01-15T00:52:00.810Z,21.37
2024-01-15T00:53:00.869Z,21.31
2024-01-15T00:54:00.979Z,21.39
2024-01-15T00:55:01.046Z,21.42
2024-01-15T00:56:01.045Z,21.34
2024-01-15T00:57:01.182Z,21.34
2024-01-15T00:58:01.234Z,21.37
2024-01-15T00:59:01.280Z,21.39
2024-01-15T01:00:03.904Z,21.36
2024-01-15T01:01:01.369Z,21.39
2024-01-15T01:02:01.295Z,21.34
2024-01-15T01:03:01.401Z,21.37
2024-01-15T01:04:01.402Z,21.34
2024-01-15T01:05:01.376Z,21.36
2024-01-15T01:06:01.341Z,21.37
2024-01-15T01:07:01.293Z,21.39
2024-01-15T01:08:01.274Z,21.31
2024-01-15T01:09:01.302Z,21.34
2024-01-15T01:10:01.348Z,21.37
2024-01-15T01:11:01.301Z,21.33
2024-01-15T01:12:01.316Z,21.43
2024-01-15T01:13:01.270Z,21.38
2024-01-15T01:14:01.281Z,21.38
2024-01-15T01:15:01.643Z,21.42
2024-01-15T01:16:01.308Z,21.39
2024-01-15T01:17:01.405Z,21.42
2024-01-15T01:18:01.568Z,21.40
2024-01-15T01:19:01.696Z,21.37
2024-01-15T01:20:01.804Z,21.40
2024-01-15T01:21:01.521Z,21.43
2024-01-15T01:22:01.578Z,21.45
2024-01-15T01:23:01.642Z,21.40
2024-01-15T01:24:01.666Z,21.45
2024-01-15T01:25:01.717Z,21.43
2024-01-15T01:26:01.769Z,21.43
2024-01-15T01:27:01.777Z,21.41
2024-01-15T01:28:02.017Z,21.40
2024-01-15T01:29:01.949Z,21.45
2024-01-15T01:30:01.938Z,21.40
2024-01-15T01:31:02.112Z,21.41
2024-01-15T01:32:02.064Z,21.40
2024-01-15T01:33:02.146Z,21.46
2024-01-15T01:34:02.303Z,21.37
2024-01-15T01:35:02.266Z,21.41
2024-01-15T01:36:02.305Z,21.46
2024-01-15T01:37:02.366Z,21.45
2024-01-15T01:38:02.356Z,21.43
2024-01-15T01:39:02.429Z,21.43
2024-01-15T01:40:02.499Z,21.41
2024-01-15T01:41:02.583Z,21.49
2024-01-15T01:42:02.620Z,21.45
2024-01-15T01:43:02.662Z,21.43
2024-01-15T01:44:02.685Z,21.43
2024-01-15T01:45:02.757Z,21.43
2024-01-15T01:46:02.833Z,21.41
2024-01-15T01:47:02.808Z,21.46
2024-01-15T01:48:02.881Z,21.45
2024-01-15T01:49:02.846Z,21.38
2024-01-15T01:50:02.862Z,21.40
2024-01-15T01:51:02.994Z,21.43
2024-01-15T01:52:02.919Z,21.45
2024-01-15T01:53:02.934Z,21.46
2024-01-15T01:54:02.932Z,21.46
2024-01-15T01:55:03.010Z,21.43
2024-01-15T01:56:03.003Z,21.45
2024-01-15T01:57:03.020Z,21.41
2024-01-15T01:58:03.055Z,21.43
2024-01-15T01:59:03.061Z,21.46
2024-01-15T02:00:03.082Z,21.51
2024-01-15T02:01:03.413Z,21.46
2024-01-15T02:02:03.172Z,21.46
2024-01-15T02:03:03.184Z,21.46
2024-01-15T02:04:03.355Z,21.48
2024-01-15T02:05:03.329Z,21.48
2024-01-15T02:06:03.323Z,21.51
2024-01-15T02:07:03.364Z,21.45
2024-01-15T02:08:03.326Z,21.49
2024-01-15T02:09:03.357Z,21.46
2024-01-15T02:10:03.346Z,21.51
2024-01-15T02:11:03.426Z,21.49
2024-01-15T02:12:03.467Z,21.53
2024-01-15T02:13:03.478Z,21.56
2024-01-15T02:14:03.491Z,21.52
2024-01-15T02:15:03.567Z,21.46
2024-01-15T02:16:03.550Z,21.55
2024-01-15T02:17:03.552Z,21.48
2024-01-15T02:18:03.642Z,21.56
2024-01-15T02:19:03.716Z,21.49
2024-01-15T02:20:03.688Z,21.50
2024-01-15T02:21:04.012Z,21.49
2024-01-15T02:22:03.705Z,21.46
2024-01-15T02:23:03.741Z,21.51
2024-01-15T02:24:03.746Z,21.49
2024-01-15T02:25:03.755Z,21.51
2024-01-15T02:26:03.819Z,21.51
2024-01-15T02:27:03.775Z,21.51
2024-01-15T02:28:03.828Z,21.55
2024-01-15T02:29:03.831Z,21.51
2024-01-15T02:30:04.095Z,21.48
2024-01-15T02:31:04.050Z,21.48
2024-01-15T02:32:03.895Z,21.49
2024-01-15T02:33:03.934Z,21.53
2024-01-15T02:34:04.197Z,21.53
2024-01-15T02:35:03.937Z,21.50
2024-01-15T02:36:03.934Z,21.53
2024-01-15T02:37:03.997Z,21.53
2024-01-15T02:38:03.946Z,21.53
2024-01-15T02:39:04.046Z,21.59
2024-01-15T02:40:04.012Z,21.51
2024-01-15T02:41:04.031Z,21.56
2024-01-15T02:42:04.085Z,21.54
2024-01-15T02:43:04.044Z,21.51
2024-01-15T02:44:04.043Z,21.58
2024-01-15T02:45:04.043Z,21.56
2024-01-15T02:46:04.116Z,21.51
2024-01-15T02:47:04.133Z,21.50
2024-01-15T02:48:04.166Z,21.61
2024-01-15T02:49:04.339Z,21.53
2024-01-15T02:50:04.265Z,21.54
2024-01-15T02:51:04.185Z,21.50
2024-01-15T02:52:04.209Z,21.54
2024-01-15T02:53:04.227Z,21.54
2024-01-15T02:54:04.272Z,21.54
2024-01-15T02:55:04.271Z,21.51
2024-01-15T02:56:04.358Z,21.54
2024-01-15T02:57:04.337Z,21.56
2024-01-15T02:58:04.351Z,21.62
2024-01-15T02:59:04.342Z,21.56
2024-01-15T03:00:04.391Z,21.54
2024-01-15T03:01:04.483Z,21.62
2024-01-15T03:02:04.371Z,21.63
2024-01-15T03:03:04.546Z,21.56
2024-01-15T03:04:04.612Z,21.56
2024-01-15T03:05:04.458Z,21.54
2024-01-15T03:06:04.473Z,21.54
2024-01-15T03:07:04.394Z,21.62
2024-01-15T03:08:04.401Z,21.59
2024-01-15T03:09:04.422Z,21.63
2024-01-15T03:10:04.429Z,21.62
2024-01-15T03:11:04.438Z,21.65
2024-01-15T03:12:04.466Z,21.63
2024-01-15T03:13:04.412Z,21.59
2024-01-15T03:14:04.454Z,21.54
2024-01-15T03:15:04.498Z,21.62
2024-01-15T03:16:04.501Z,21.62
2024-01-15T03:17:04.536Z,21.56
2024-01-15T03:18:04.615Z,21.59
2024-01-15T03:19:04.628Z,21.59
2024-01-15T03:20:04.665Z,21.56
2024-01-15T03:21:04.553Z,21.57
2024-01-15T03:22:04.582Z,21.57
2024-01-15T03:23:04.585Z,21.57
2024-01-15T03:24:04.598Z,21.59
2024-01-15T03:25:04.564Z,21.60
2024-01-15T03:26:04.586Z,21.62
2024-01-15T03:27:04.593Z,21.63
2024-01-15T03:28:04.629Z,21.71
2024-01-15T03:29:04.654Z,21.62
2024-01-15T03:30:04.687Z,21.59
2024-01-15T03:31:04.743Z,21.57
2024-01-15T03:32:04.656Z,21.57
2024-01-15T03:33:04.718Z,21.62
2024-01-15T03:34:04.811Z,21.60
2024-01-15T03:35:04.789Z,21.60
2024-01-15T03:36:04.721Z,21.54
2024-01-15T03:37:04.742Z,21.59
2024-01-15T03:38:04.719Z,21.65
2024-01-15T03:39:04.785Z,21.63
2024-01-15T03:40:04.786Z,21.60
2024-01-15T03:41:04.745Z,21.62
2024-01-15T03:42:04.816Z,21.63
2024-01-15T03:43:04.764Z,21.63
2024-01-15T03:44:04.770Z,21.60
2024-01-15T03:45:04.827Z,21.64
2024-01-15T03:46:04.829Z,21.59
2024-01-15T03:47:04.838Z,21.60
2024-01-15T03:48:04.957Z,21.57
2024-01-15T03:49:04.919Z,21.60
2024-01-15T03:50:04.856Z,21.62
2024-01-15T03:51:04.866Z,21.60
2024-01-15T03:52:04.870Z,21.62
2024-01-15T03:53:04.887Z,21.60
2024-01-15T03:54:04.887Z,21.63
2024-01-15T03:55:04.921Z,21.69
2024-01-15T03:56:04.883Z,21.62
2024-01-15T03:57:04.973Z,21.63
2024-01-15T03:58:04.998Z,21.68
2024-01-15T03:59:05.557Z,21.63
2024-01-15T04:00:04.967Z,21.69
2024-01-15T04:01:05.126Z,21.70
2024-01-15T04:02:04.979Z,21.64
2024-01-15T04:03:05.149Z,21.66
2024-01-15T04:04:05.140Z,21.60
2024-01-15T04:05:05.038Z,21.64
2024-01-15T04:06:05.107Z,21.66
2024-01-15T04:07:05.099Z,21.70
2024-01-15T04:08:05.103Z,21.60
2024-01-15T04:09:05.162Z,21.63
2024-01-15T04:10:05.086Z,21.60
2024-01-15T04:11:05.090Z,21.61
2024-01-15T04:12:05.092Z,21.64
2024-01-15T04:13:05.136Z,21.63
2024-01-15T04:14:05.108Z,21.63
2024-01-15T04:15:05.133Z,21.58
2024-01-15T04:16:05.116Z,21.55
2024-01-15T04:17:12.929Z,21.64
2024-01-15T04:18:12.971Z,21.61
2024-01-15T04:19:12.965Z,21.61
2024-01-15T04:20:12.907Z,21.66
2024-01-15T04:21:12.928Z,21.61
2024-01-15T04:22:12.895Z,21.60
2024-01-15T04:23:12.926Z,21.65
2024-01-15T04:24:12.948Z,21.60
2024-01-15T04:25:52.297Z,21.68
2024-01-15T04:26:52.298Z,21.64
2024-01-15T04:27:52.353Z,21.64
2024-01-15T04:28:52.265Z,21.62
2024-01-15T04:29:52.270Z,21.58
2024-01-15T04:30:52.381Z,21.67
2024-01-15T04:32:00.196Z,21.64
2024-01-15T04:33:00.197Z,21.59
2024-01-15T04:34:00.209Z,21.55
2024-01-15T04:35:00.113Z,21.61
2024-01-15T04:36:00.104Z,21.64
2024-01-15T04:37:00.667Z,21.68
2024-01-15T04:38:00.149Z,21.66
2024-01-15T04:39:00.113Z,21.68
2024-01-15T04:40:00.286Z,21.58
2024-01-15T04:41:00.161Z,21.67
2024-01-15T04:42:00.069Z,21.67
2024-01-15T04:43:00.164Z,21.70
2024-01-15T04:44:00.143Z,21.65
2024-01-15T04:45:00.191Z,21.61
2024-01-15T04:46:00.216Z,21.64
2024-01-15T04:47:00.693Z,21.65
2024-01-15T04:48:00.190Z,21.73
2024-01-15T04:49:00.246Z,21.67
2024-01-15T04:50:00.288Z,21.64
2024-01-15T04:51:00.108Z,21.68
2024-01-15T04:52:00.163Z,21.64
2024-01-15T04:53:00.194Z,21.65
2024-01-15T04:54:00.223Z,21.64
2024-01-15T04:55:00.155Z,21.65
2024-01-15T04:56:00.243Z,21.64
2024-01-15T04:57:00.198Z,21.65
2024-01-15T04:58:00.171Z,21.64
2024-01-15T04:59:00.271Z,21.67
2024-01-15T05:00:00.181Z,21.67
2024-01-15T05:01:00.350Z,21.67
2024-01-15T05:02:00.188Z,21.62
2024-01-15T05:03:00.263Z,21.59
2024-01-15T05:04:00.649Z,21.62
2024-01-15T05:05:00.232Z,21.53
2024-01-15T05:06:00.312Z,21.47
2024-01-15T05:07:00.213Z,21.53
2024-01-15T05:08:00.189Z,21.43
2024-01-15T05:09:00.220Z,21.35
2024-01-15T05:10:00.379Z,21.29
2024-01-15T05:11:00.196Z,21.32
2024-01-15T05:12:00.280Z,21.26
2024-01-15T05:13:00.212Z,21.26
2024-01-15T05:14:00.206Z,21.23
2024-01-15T05:15:00.342Z,21.19
2024-01-15T05:16:00.337Z,21.18
2024-01-15T05:17:00.196Z,21.08
2024-01-15T05:18:00.391Z,21.11
2024-01-15T05:19:00.309Z,21.06
2024-01-15T05:20:00.698Z,21.05
2024-01-15T05:21:00.239Z,21.03
2024-01-15T05:22:00.225Z,20.92
2024-01-15T05:23:00.175Z,20.91
2024-01-15T05:24:00.229Z,20.87
2024-01-15T05:25:00.371Z,20.88
2024-01-15T05:26:00.182Z,20.88
2024-01-15T05:27:00.195Z,20.75
2024-01-15T05:28:00.209Z,20.76
2024-01-15T05:29:00.221Z,20.67
2024-01-15T05:30:00.274Z,20.66
2024-01-15T05:31:00.321Z,20.69
2024-01-15T05:32:02.574Z,20.73
2024-01-15T05:33:00.378Z,20.73
2024-01-15T05:34:00.230Z,20.75
2024-01-15T05:35:00.384Z,20.81
2024-01-15T05:36:00.267Z,20.76
2024-01-15T05:37:00.222Z,20.79
2024-01-15T05:38:00.239Z,20.79
2024-01-15T05:39:00.229Z,20.82
2024-01-15T05:40:00.501Z,20.81
2024-01-15T05:41:00.249Z,20.76
2024-01-15T05:42:00.227Z,20.79
2024-01-15T05:43:00.319Z,20.75
2024-01-15T05:44:00.246Z,20.81
2024-01-15T05:45:00.275Z,20.86
2024-01-15T05:46:00.313Z,20.86
2024-01-15T05:47:00.318Z,20.80
2024-01-15T05:48:00.406Z,20.87
2024-01-15T05:49:00.446Z,20.84
2024-01-15T05:50:00.351Z,20.90
2024-01-15T05:51:00.268Z,20.88
2024-01-15T05:52:00.252Z,20.94
2024-01-15T05:53:00.314Z,20.93
2024-01-15T05:54:00.223Z,20.95
2024-01-15T05:55:00.275Z,20.92
2024-01-15T05:56:00.235Z,20.99
2024-01-15T05:57:00.238Z,20.98
2024-01-15T05:58:00.353Z,20.93
2024-01-15T05:59:00.266Z,20.96
2024-01-15T06:00:00.430Z,21.01
2024-01-15T06:01:00.402Z,20.98
2024-01-15T06:02:00.286Z,21.04
2024-01-15T06:03:00.258Z,21.01
2024-01-15T06:04:00.496Z,20.96
2024-01-15T06:05:00.424Z,21.01
2024-01-15T06:06:00.315Z,20.99
2024-01-15T06:07:00.278Z,20.99
2024-01-15T06:08:00.340Z,21.08
2024-01-15T06:09:00.267Z,19.91
2024-01-15T06:10:00.393Z,19.70
2024-01-15T06:11:02.211Z,19.35
2024-01-15T06:12:00.293Z,19.34
2024-01-15T06:13:00.345Z,19.17
2024-01-15T06:14:00.282Z,19.17
2024-01-15T06:15:00.358Z,19.01
2024-01-15T06:16:00.463Z,19.02
2024-01-15T06:17:00.495Z,19.08
2024-01-15T06:18:00.716Z,19.12
2024-01-15T06:19:00.830Z,19.15
2024-01-15T06:20:00.678Z,19.27
2024-01-15T06:21:00.636Z,19.20
2024-01-15T06:22:01.002Z,19.18
2024-01-15T06:23:00.778Z,19.14
2024-01-15T06:24:00.836Z,19.18
2024-01-15T06:25:00.806Z,19.18
2024-01-15T06:26:00.842Z,19.18
2024-01-15T06:27:00.888Z,19.15
2024-01-15T06:28:01.017Z,19.18
2024-01-15T06:29:00.978Z,19.14
2024-01-15T06:30:01.009Z,18.90
2024-01-15T06:31:01.156Z,18.95
2024-01-15T06:32:01.138Z,19.05
2024-01-15T06:33:01.200Z,19.62
2024-01-15T06:34:01.258Z,19.67
2024-01-15T06:35:01.224Z,19.74
2024-01-15T06:36:01.232Z,20.17
2024-01-15T06:37:01.396Z,20.63
2024-01-15T06:38:01.395Z,20.90
2024-01-15T06:39:01.295Z,20.68
2024-01-15T06:40:01.468Z,21.05
2024-01-15T06:41:01.337Z,22.00
2024-01-15T06:42:01.715Z,23.51
2024-01-15T06:43:01.416Z,21.16
2024-01-15T06:44:01.390Z,21.90
2024-01-15T06:45:01.405Z,21.57
2024-01-15T06:46:04.219Z,21.59
2024-01-15T06:47:02.536Z,21.75
2024-01-15T06:48:01.568Z,22.00
2024-01-15T06:49:01.962Z,22.00
2024-01-15T06:50:02.195Z,22.04
2024-01-15T06:51:02.710Z,22.31
2024-01-15T06:52:02.335Z,22.47
2024-01-15T06:53:01.464Z,22.59
2024-01-15T06:54:01.445Z,22.74
2024-01-15T06:55:01.607Z,22.78
2024-01-15T06:56:01.732Z,22.94
2024-01-15T06:57:01.476Z,22.90
2024-01-15T06:58:01.891Z,23.07
2024-01-15T06:59:01.521Z,23.06
2024-01-15T07:00:01.562Z,23.25
2024-01-15T07:01:01.684Z,23.16
2024-01-15T07:02:01.617Z,23.43
2024-01-15T07:03:01.876Z,23.54
2024-01-15T07:04:01.698Z,23.55
2024-01-15T07:05:04.347Z,23.52
2024-01-15T07:06:01.738Z,23.72
2024-01-15T07:07:01.773Z,23.79
2024-01-15T07:08:03.297Z,23.68
2024-01-15T07:09:01.788Z,23.79
2024-01-15T07:10:02.284Z,23.92
2024-01-15T07:11:01.820Z,23.97
2024-01-15T07:12:01.784Z,24.03
2024-01-15T07:13:01.787Z,24.04
2024-01-15T07:14:02.261Z,24.19
2024-01-15T07:15:01.847Z,24.21
2024-01-15T07:16:01.840Z,24.16
2024-01-15T07:17:01.817Z,24.13
2024-01-15T07:18:02.312Z,24.22
2024-01-15T07:19:01.838Z,24.19
2024-01-15T07:20:02.427Z,24.37
2024-01-15T07:21:01.791Z,24.20
2024-01-15T07:22:01.820Z,24.30
2024-01-15T07:23:01.786Z,24.44
2024-01-15T07:24:02.118Z,24.44
2024-01-15T07:25:02.920Z,24.47
2024-01-15T07:26:03.056Z,24.33
2024-01-15T07:27:01.830Z,24.43
2024-01-15T07:28:02.253Z,24.44
2024-01-15T07:29:01.802Z,24.40
2024-01-15T07:30:02.685Z,24.60
2024-01-15T07:31:01.809Z,24.61
2024-01-15T07:32:01.855Z,24.63
2024-01-15T07:33:02.009Z,24.74
2024-01-15T07:34:02.051Z,24.85
2024-01-15T07:35:01.883Z,24.72
2024-01-15T07:36:03.633Z,24.65
2024-01-15T07:37:02.341Z,24.59
2024-01-15T07:38:01.800Z,24.58
2024-01-15T07:39:01.867Z,24.57
2024-01-15T07:40:02.362Z,24.35
2024-01-15T07:41:01.907Z,23.31
2024-01-15T07:42:02.348Z,22.99
2024-01-15T07:43:02.134Z,23.15
2024-01-15T07:44:02.143Z,23.06
2024-01-15T07:45:02.129Z,22.72
2024-01-15T07:46:02.225Z,22.80
2024-01-15T07:47:02.377Z,22.60
2024-01-15T07:48:02.346Z,22.78
2024-01-15T07:49:02.909Z,22.81
2024-01-15T07:50:05.719Z,22.77
2024-01-15T07:51:03.084Z,22.66
2024-01-15T07:52:02.517Z,22.74
2024-01-15T07:53:02.314Z,22.68
2024-01-15T07:54:02.305Z,22.65
2024-01-15T07:55:02.573Z,22.62
2024-01-15T07:56:03.562Z,22.65
2024-01-15T07:57:02.354Z,22.64
2024-01-15T07:58:11.393Z,22.71
2024-01-15T07:59:03.887Z,22.67
2024-01-15T08:00:03.124Z,22.71
2024-01-15T08:01:02.464Z,22.82
2024-01-15T08:02:02.469Z,22.71
2024-01-15T08:03:02.273Z,22.65
2024-01-15T08:04:02.899Z,22.73
2024-01-15T08:05:04.395Z,22.60
2024-01-15T08:06:02.512Z,22.66
2024-01-15T08:07:05.414Z,22.63
2024-01-15T08:08:02.310Z,22.49
2024-01-15T08:09:02.297Z,22.57
2024-01-15T08:10:03.862Z,22.69
2024-01-15T08:11:02.312Z,22.60
2024-01-15T08:12:02.298Z,22.49
2024-01-15T08:13:03.207Z,22.54
2024-01-15T08:14:02.387Z,22.63
2024-01-15T08:15:02.755Z,22.49
2024-01-15T08:16:02.321Z,22.51
2024-01-15T08:17:02.479Z,22.46
2024-01-15T08:18:06.871Z,22.50
2024-01-15T08:19:04.934Z,22.49
2024-01-15T08:20:03.227Z,22.42
2024-01-15T08:21:04.400Z,22.44
2024-01-15T08:22:02.290Z,22.49
2024-01-15T08:23:02.427Z,22.51
2024-01-15T08:24:02.422Z,22.47
2024-01-15T08:25:03.033Z,22.50
2024-01-15T08:26:02.326Z,22.37
2024-01-15T08:27:02.730Z,22.41
2024-01-15T08:28:02.334Z,22.40
2024-01-15T08:29:03.914Z,22.40
2024-01-15T08:30:02.978Z,22.34
2024-01-15T08:31:02.901Z,22.41
2024-01-15T08:32:02.451Z,22.34
2024-01-15T08:33:08.498Z,22.46
2024-01-15T08:34:03.504Z,22.49
2024-01-15T08:35:02.550Z,22.49
2024-01-15T08:36:02.389Z,22.50
2024-01-15T08:37:02.908Z,22.52
2024-01-15T08:38:02.401Z,22.63
2024-01-15T08:39:02.319Z,22.59
2024-01-15T08:40:02.393Z,22.24
2024-01-15T08:41:02.422Z,22.02
2024-01-15T08:42:02.360Z,21.87
2024-01-15T08:43:02.294Z,21.75
2024-01-15T08:44:03.348Z,21.63
2024-01-15T08:45:03.348Z,21.63
2024-01-15T08:46:03.512Z,21.62
2024-01-15T08:47:04.756Z,21.53
2024-01-15T08:48:02.484Z,21.60
2024-01-15T08:49:04.972Z,21.56
2024-01-15T08:50:02.436Z,21.53
2024-01-15T08:51:02.380Z,21.54
2024-01-15T08:52:02.897Z,21.50
2024-01-15T08:53:02.806Z,20.88
2024-01-15T08:54:02.623Z,20.05
2024-01-15T08:55:02.584Z,19.48
2024-01-15T08:56:02.434Z,19.04
2024-01-15T08:57:02.970Z,18.84
2024-01-15T08:58:03.446Z,18.93
2024-01-15T08:59:03.527Z,18.99
2024-01-15T09:00:05.265Z,19.03
2024-01-15T09:01:03.641Z,18.94
2024-01-15T09:02:02.862Z,18.85
2024-01-15T09:03:02.378Z,18.75
2024-01-15T09:04:05.235Z,18.72
2024-01-15T09:05:03.564Z,18.81
2024-01-15T09:06:02.498Z,19.15
2024-01-15T09:07:06.875Z,19.10
2024-01-15T09:08:02.509Z,19.03
2024-01-15T09:09:02.419Z,19.10
2024-01-15T09:10:03.896Z,19.08
2024-01-15T09:11:06.176Z,18.96
2024-01-15T09:12:04.902Z,18.92
2024-01-15T09:13:04.165Z,19.24
2024-01-15T09:14:02.488Z,18.88
2024-01-15T09:15:05.844Z,18.93
2024-01-15T09:16:02.734Z,18.88
2024-01-15T09:17:02.818Z,18.99
2024-01-15T09:18:05.442Z,18.98
2024-01-15T09:19:03.972Z,18.99
2024-01-15T09:20:07.984Z,18.98
2024-01-15T09:21:04.451Z,18.97
2024-01-15T09:22:05.479Z,18.94
2024-01-15T09:23:02.620Z,19.04
2024-01-15T09:24:02.623Z,19.73
2024-01-15T09:25:04.922Z,19.66
2024-01-15T09:26:02.651Z,20.24
2024-01-15T09:27:03.180Z,20.20
2024-01-15T09:28:02.571Z,20.36
2024-01-15T09:29:02.551Z,20.42
2024-01-15T09:30:02.622Z,20.36
2024-01-15T09:31:02.660Z,20.40
2024-01-15T09:32:02.642Z,20.39
2024-01-15T09:33:02.707Z,20.29
2024-01-15T09:34:02.692Z,20.25
2024-01-15T09:35:02.576Z,20.21
2024-01-15T09:36:02.893Z,20.20
2024-01-15T09:37:02.520Z,20.14
2024-01-15T09:38:02.535Z,20.11
2024-01-15T09:39:02.649Z,20.10
2024-01-15T09:40:02.635Z,20.00
2024-01-15T09:41:02.677Z,20.54
2024-01-15T09:42:04.492Z,20.83
2024-01-15T09:43:05.700Z,20.84
2024-01-15T09:44:02.605Z,21.04
2024-01-15T09:45:06.258Z,21.17
2024-01-15T09:46:02.774Z,21.31
2024-01-15T09:47:04.502Z,21.51
2024-01-15T09:48:02.663Z,21.67
2024-01-15T09:49:02.753Z,21.75
2024-01-15T09:50:02.619Z,21.89
2024-01-15T09:51:02.810Z,22.09
2024-01-15T09:52:06.391Z,22.24
2024-01-15T09:53:04.451Z,22.42
2024-01-15T09:54:02.623Z,22.52
2024-01-15T09:55:02.908Z,22.67
2024-01-15T09:56:05.374Z,22.75
2024-01-15T09:57:03.343Z,22.97
2024-01-15T09:58:02.672Z,23.14
2024-01-15T09:59:04.329Z,23.09
2024-01-15T10:00:03.738Z,23.21
2024-01-15T10:01:06.113Z,23.30
2024-01-15T10:02:03.639Z,23.53
2024-01-15T10:03:02.716Z,23.62
2024-01-15T10:04:03.125Z,23.71
2024-01-15T10:05:03.038Z,23.62
2024-01-15T10:06:02.674Z,23.71
2024-01-15T10:07:04.570Z,23.79
2024-01-15T10:08:02.605Z,23.78
2024-01-15T10:09:02.708Z,23.78
2024-01-15T10:10:03.676Z,23.97
2024-01-15T10:11:02.708Z,23.97
2024-01-15T10:12:02.944Z,24.00
2024-01-15T10:13:02.822Z,24.09
2024-01-15T10:14:03.276Z,24.12
2024-01-15T10:15:02.885Z,24.19
2024-01-15T10:16:02.721Z,24.19
2024-01-15T10:17:02.876Z,23.92
2024-01-15T10:18:02.924Z,23.75
2024-01-15T10:19:04.270Z,23.69
2024-01-15T10:20:02.975Z,22.62
2024-01-15T10:21:03.325Z,21.67
2024-01-15T10:22:03.856Z,20.83
2024-01-15T10:23:03.340Z,20.36
2024-01-15T10:24:03.024Z,20.47
2024-01-15T10:25:03.061Z,20.21
2024-01-15T10:26:03.099Z,20.45
2024-01-15T10:27:03.877Z,20.38
2024-01-15T10:28:04.096Z,20.00
2024-01-15T10:29:03.253Z,20.11
2024-01-15T10:30:03.382Z,20.41
2024-01-15T10:31:03.535Z,20.48
2024-01-15T10:32:03.556Z,20.72
2024-01-15T10:33:04.039Z,20.80
2024-01-15T10:34:03.711Z,21.01
2024-01-15T10:35:03.767Z,20.96
2024-01-15T10:36:03.735Z,21.24
2024-01-15T10:37:05.175Z,21.37
2024-01-15T10:38:05.559Z,21.33
2024-01-15T10:39:05.490Z,21.33
2024-01-15T10:40:04.029Z,21.35
2024-01-15T10:41:04.400Z,21.45
2024-01-15T10:42:04.003Z,21.39
2024-01-15T10:43:04.193Z,21.44
2024-01-15T10:44:04.283Z,21.57
2024-01-15T10:45:05.970Z,21.86
2024-01-15T10:46:04.530Z,21.96
2024-01-15T10:47:04.936Z,22.02
2024-01-15T10:48:04.766Z,22.05
2024-01-15T10:49:05.209Z,22.29
2024-01-15T10:50:08.650Z,22.35
2024-01-15T10:51:06.214Z,22.71
2024-01-15T10:52:05.455Z,22.61
2024-01-15T10:53:04.560Z,22.78
2024-01-15T10:54:04.510Z,22.84
2024-01-15T10:55:08.694Z,22.92
2024-01-15T10:56:05.486Z,22.98
2024-01-15T10:57:04.414Z,23.10
2024-01-15T10:58:04.474Z,23.30
2024-01-15T10:59:04.613Z,23.27
2024-01-15T11:00:05.572Z,23.30
2024-01-15T11:01:05.517Z,23.34
2024-01-15T11:02:06.371Z,23.33
2024-01-15T11:03:19.884Z,23.50
2024-01-15T11:04:05.411Z,23.54
2024-01-15T11:05:04.918Z,23.63
2024-01-15T11:06:04.494Z,23.61
2024-01-15T11:07:04.746Z,23.57
2024-01-15T11:08:04.752Z,23.77
2024-01-15T11:09:05.941Z,23.81
2024-01-15T11:10:05.087Z,23.86
2024-01-15T11:11:07.347Z,23.86
2024-01-15T11:12:04.587Z,23.85
2024-01-15T11:13:04.529Z,23.90
2024-01-15T11:14:04.430Z,23.90
2024-01-15T11:15:04.925Z,23.95
2024-01-15T11:16:04.866Z,23.95
2024-01-15T11:17:04.396Z,24.06
2024-01-15T11:18:05.518Z,24.09
2024-01-15T11:19:05.282Z,24.06
2024-01-15T11:20:05.708Z,24.19
2024-01-15T11:21:06.428Z,24.24
2024-01-15T11:22:04.619Z,24.10
2024-01-15T11:23:04.955Z,24.23
2024-01-15T11:24:05.909Z,24.23
2024-01-15T11:25:05.525Z,24.22
2024-01-15T11:26:04.969Z,24.32
2024-01-15T11:27:04.772Z,24.40
2024-01-15T11:28:04.958Z,24.31
2024-01-15T11:29:05.869Z,24.30
2024-01-15T11:30:05.144Z,24.49
2024-01-15T11:31:05.186Z,23.75
2024-01-15T11:32:05.074Z,22.92
2024-01-15T11:33:05.282Z,22.39
2024-01-15T11:34:05.450Z,22.49
2024-01-15T11:35:05.398Z,22.11
2024-01-15T11:36:05.371Z,22.02
2024-01-15T11:37:05.405Z,21.56
2024-01-15T11:38:05.915Z,22.01
2024-01-15T11:39:05.317Z,22.02
2024-01-15T11:40:05.553Z,21.95
2024-01-15T11:41:05.387Z,21.97
2024-01-15T11:42:06.568Z,20.96
2024-01-15T11:43:06.616Z,21.71
2024-01-15T11:44:07.711Z,21.44
2024-01-15T11:45:06.744Z,20.89
2024-01-15T11:46:05.673Z,20.66
2024-01-15T11:47:05.642Z,20.68
2024-01-15T11:48:05.777Z,20.48
2024-01-15T11:49:06.485Z,20.41
2024-01-15T11:50:05.952Z,20.18
2024-01-15T11:51:05.859Z,20.00
2024-01-15T11:52:05.867Z,19.96
2024-01-15T11:53:07.594Z,19.84
2024-01-15T11:54:05.895Z,19.97
2024-01-15T11:55:05.847Z,19.69
2024-01-15T11:56:06.004Z,19.84
2024-01-15T11:57:05.954Z,19.72
2024-01-15T11:58:05.908Z,19.50
2024-01-15T11:59:06.950Z,19.39
2024-01-15T12:00:06.023Z,19.77
2024-01-15T12:01:06.980Z,19.46
2024-01-15T12:02:06.145Z,19.61
2024-01-15T12:03:06.403Z,19.46
2024-01-15T12:04:06.253Z,20.29
2024-01-15T12:05:06.240Z,20.63
2024-01-15T12:06:06.296Z,20.93
2024-01-15T12:07:06.382Z,21.05
2024-01-15T12:08:06.890Z,21.18
2024-01-15T12:09:06.311Z,21.33
2024-01-15T12:10:06.331Z,21.43
2024-01-15T12:11:07.455Z,21.51
2024-01-15T12:12:06.463Z,21.69
2024-01-15T12:13:06.942Z,21.74
2024-01-15T12:14:06.535Z,21.78
2024-01-15T12:15:06.655Z,21.97
2024-01-15T12:16:06.989Z,22.01
2024-01-15T12:17:06.672Z,22.13
2024-01-15T12:18:06.722Z,22.23
2024-01-15T12:19:06.796Z,22.26
2024-01-15T12:20:06.664Z,22.40
2024-01-15T12:21:06.693Z,22.46
2024-01-15T12:22:06.696Z,22.60
2024-01-15T12:23:08.770Z,22.51
2024-01-15T12:24:06.987Z,20.57
2024-01-15T12:25:07.144Z,19.66
2024-01-15T12:26:06.945Z,19.04
2024-01-15T12:27:07.042Z,18.59
2024-01-15T12:28:07.119Z,18.47
2024-01-15T12:29:07.067Z,18.45
2024-01-15T12:30:07.126Z,18.45
2024-01-15T12:31:07.247Z,18.03
2024-01-15T12:32:07.164Z,18.22
2024-01-15T12:33:07.283Z,18.33
2024-01-15T12:34:07.361Z,18.13
2024-01-15T12:35:07.277Z,17.99
2024-01-15T12:36:07.300Z,18.08
2024-01-15T12:37:07.405Z,17.94
2024-01-15T12:38:07.529Z,17.80
2024-01-15T12:39:07.363Z,17.83
2024-01-15T12:40:07.418Z,17.85
2024-01-15T12:41:07.507Z,17.96
2024-01-15T12:42:07.495Z,18.01
2024-01-15T12:43:07.576Z,17.88
2024-01-15T12:44:07.556Z,18.00
2024-01-15T12:45:07.932Z,18.17
2024-01-15T12:46:07.707Z,18.24
2024-01-15T12:47:07.734Z,18.37
2024-01-15T12:48:08.187Z,18.46
2024-01-15T12:49:07.826Z,18.46
2024-01-15T12:50:15.940Z,18.55
2024-01-15T12:51:08.886Z,18.60
2024-01-15T12:52:07.917Z,18.62
2024-01-15T12:53:07.871Z,18.68
2024-01-15T12:54:07.929Z,18.72